Time;durP1;ratioP1;P1;durP2;ratioP2;P2;SDS_P1;SDS_P2;PMS_P1;PMS_P2;Temp;Humidity;BMP_temperature;BMP_pressure;BME280_temperature;BME280_humidity;BME280_pressure;Samples;Min_cycle;Max_cycle;Signal;HPM_P1;HPM_P2
2023/04/27 00:02:12;;;;;;;1.85;1.27;;;;;;;12.56;64.86;100812.38;5014736;28;20042;-77
2023/04/27 00:04:40;;;;;;;1.95;1.40;;;;;;;12.54;66.51;100805.53;4996865;28;20061;-76
2023/04/27 00:07:08;;;;;;;2.58;1.60;;;;;;;12.46;67.08;100807.00;5014318;28;20054;-76
2023/04/27 00:09:36;;;;;;;2.85;1.92;;;;;;;12.40;68.56;100802.63;4996616;28;20405;-77
2023/04/27 00:12:05;;;;;;;3.17;1.92;;;;;;;12.33;70.30;100803.78;5014643;28;20042;-77
2023/04/27 00:14:33;;;;;;;4.10;1.80;;;;;;;12.32;69.06;100801.34;4996864;28;20050;-76
2023/04/27 00:17:00;;;;;;;3.03;1.70;;;;;;;12.26;70.13;100808.78;5014356;28;20046;-76
2023/04/27 00:19:29;;;;;;;4.72;1.60;;;;;;;12.19;70.91;100789.06;5014327;28;20050;-76
2023/04/27 00:21:58;;;;;;;1.85;1.70;;;;;;;12.22;70.54;100800.28;5013741;28;20125;-76
2023/04/27 00:24:27;;;;;;;2.42;1.50;;;;;;;12.20;69.54;100799.78;4996219;28;20508;-76
2023/04/27 00:26:55;;;;;;;2.25;1.80;;;;;;;12.22;68.74;100800.28;5014071;28;20056;-76
2023/04/27 00:29:23;;;;;;;2.60;1.58;;;;;;;12.27;67.26;100801.38;4993277;28;20130;-76
2023/04/27 00:31:51;;;;;;;2.47;1.42;;;;;;;12.27;67.51;100793.94;4993479;28;20046;-77
2023/04/27 00:34:22;;;;;;;1.95;1.45;;;;;;;12.27;66.06;100791.19;4993400;28;20046;-77
2023/04/27 00:36:50;;;;;;;2.22;1.77;;;;;;;12.28;67.24;100803.00;4993498;28;20508;-76
2023/04/27 00:39:20;;;;;;;1.95;1.30;;;;;;;12.34;66.60;100801.84;4992691;28;20046;-76
2023/04/27 00:41:47;;;;;;;1.98;1.45;;;;;;;12.31;70.69;100814.22;4993324;28;20038;-76
2023/04/27 00:44:26;;;;;;;1.65;1.42;;;;;;;12.25;67.50;100812.63;4994433;28;20057;-76
2023/04/27 00:46:57;;;;;;;1.83;1.58;;;;;;;12.17;69.12;100803.06;4994108;28;20046;-77
2023/04/27 00:49:25;;;;;;;1.58;1.25;;;;;;;12.07;67.24;100805.88;4994092;28;20038;-76
2023/04/27 00:51:54;;;;;;;1.27;1.15;;;;;;;12.05;65.98;100795.22;4993374;28;20057;-77
2023/04/27 00:54:22;;;;;;;0.80;0.80;;;;;;;12.06;66.63;100809.72;4994215;28;20404;-76
2023/04/27 00:56:51;;;;;;;1.70;1.27;;;;;;;11.97;66.70;100798.50;4994070;28;20492;-76
2023/04/27 00:59:20;;;;;;;1.15;0.95;;;;;;;11.92;64.86;100799.38;4992639;28;20061;-76
2023/04/27 01:01:49;;;;;;;1.00;0.80;;;;;;;12.16;62.57;100811.56;4994092;28;20050;-77
2023/04/27 01:04:18;;;;;;;1.63;1.30;;;;;;;12.12;64.05;100799.56;4994025;28;20374;-77
2023/04/27 01:06:47;;;;;;;3.80;1.00;;;;;;;12.02;64.48;100789.44;4993835;28;20046;-77
2023/04/27 01:09:18;;;;;;;1.10;1.00;;;;;;;11.95;66.33;100787.00;4992117;28;20042;-77
2023/04/27 01:11:49;;;;;;;2.60;0.90;;;;;;;11.87;67.41;100793.09;4993891;28;20053;-76
2023/04/27 01:14:17;;;;;;;2.33;1.33;;;;;;;11.80;68.00;100790.66;4992500;28;20054;-77
2023/04/27 01:16:45;;;;;;;0.95;0.85;;;;;;;11.77;70.82;100783.81;4992550;28;20049;-77
2023/04/27 01:19:13;;;;;;;0.70;0.70;;;;;;;11.74;70.79;100780.84;4992197;28;20046;-76
2023/04/27 01:21:42;;;;;;;3.33;1.35;;;;;;;11.71;71.12;100784.97;4992197;28;20046;-77
2023/04/27 01:24:10;;;;;;;3.70;1.60;;;;;;;11.75;71.89;100790.69;4992305;28;20038;-77
2023/04/27 01:26:38;;;;;;;1.92;0.90;;;;;;;11.72;72.16;100792.06;4976246;28;20046;-77
2023/04/27 01:29:06;;;;;;;4.78;1.05;;;;;;;11.61;72.42;100776.78;4996321;28;20377;-77
2023/04/27 01:31:34;;;;;;;2.50;1.17;;;;;;;11.49;72.75;100786.16;5013090;28;20046;-77
2023/04/27 01:34:02;;;;;;;1.40;1.30;;;;;;;11.43;73.40;100781.78;5013036;28;20050;-77
2023/04/27 01:36:31;;;;;;;1.30;0.90;;;;;;;11.33;73.81;100787.34;4995426;28;20378;-77
2023/04/27 01:38:59;;;;;;;1.23;1.13;;;;;;;11.27;74.35;100798.31;5012701;28;20046;-77
2023/04/27 01:41:26;;;;;;;1.08;1.00;;;;;;;11.16;73.61;100793.97;4995344;28;20046;-77
2023/04/27 01:43:54;;;;;;;1.30;0.98;;;;;;;11.15;74.54;100790.38;5012745;28;20049;-77
2023/04/27 01:46:23;;;;;;;1.30;1.20;;;;;;;11.11;74.42;100794.78;5012739;28;20042;-77
2023/04/27 01:48:51;;;;;;;1.77;1.40;;;;;;;11.18;74.69;100808.19;4994520;28;20500;-77
2023/04/27 01:51:19;;;;;;;4.13;1.52;;;;;;;11.21;74.70;100804.06;4995075;28;20038;-77
2023/04/27 01:53:47;;;;;;;2.15;1.75;;;;;;;11.23;77.88;100805.44;4995196;28;20038;-77
2023/04/27 01:56:16;;;;;;;2.10;1.75;;;;;;;11.25;78.05;100811.44;4994953;28;20049;-77
2023/04/27 01:58:45;;;;;;;2.60;1.70;;;;;;;11.15;77.98;100808.75;5012666;28;20054;-77
2023/04/27 02:01:13;;;;;;;2.83;1.45;;;;;;;11.10;77.97;100801.34;4995014;28;20493;-77
2023/04/27 02:03:41;;;;;;;1.63;1.40;;;;;;;11.08;78.31;100805.47;4994023;28;20069;-77
2023/04/27 02:06:09;;;;;;;2.25;1.60;;;;;;;11.11;78.10;100810.41;4994907;28;20061;-77
2023/04/27 02:08:39;;;;;;;3.42;2.08;;;;;;;11.09;78.97;100810.69;5012130;28;20069;-77
2023/04/27 02:11:08;;;;;;;1.90;1.50;;;;;;;11.07;78.63;100823.00;5012500;28;20038;-77
2023/04/27 02:13:36;;;;;;;2.13;1.67;;;;;;;11.13;78.93;100821.91;4994823;28;20057;-77
2023/04/27 02:16:05;;;;;;;2.83;2.40;;;;;;;11.14;78.82;100815.31;4994755;28;20057;-77
2023/04/27 02:18:33;;;;;;;2.90;2.05;;;;;;;11.12;79.73;100806.56;5012160;28;20038;-76
2023/04/27 02:21:08;;;;;;;2.40;2.13;;;;;;;11.08;79.03;100819.16;4994825;28;20054;-77
2023/04/27 02:23:36;;;;;;;3.15;2.20;;;;;;;11.09;80.41;100829.03;4994778;28;20060;-77
2023/04/27 02:26:05;;;;;;;2.92;2.10;;;;;;;11.08;80.33;100835.59;4994363;28;20057;-77
2023/04/27 02:28:33;;;;;;;2.47;2.13;;;;;;;11.09;80.00;100834.53;5012061;28;20503;-77
2023/04/27 02:31:01;;;;;;;2.45;2.30;;;;;;;11.10;80.64;100830.69;4994513;28;20057;-77
2023/04/27 02:33:29;;;;;;;4.10;2.42;;;;;;;11.04;81.52;100835.34;5011986;28;20046;-77
2023/04/27 02:35:57;;;;;;;5.93;2.40;;;;;;;11.00;81.79;100843.28;5012048;28;20049;-77
2023/04/27 02:38:29;;;;;;;3.00;2.35;;;;;;;10.86;81.61;100840.28;5011739;28;20495;-77
2023/04/27 02:40:56;;;;;;;3.90;2.42;;;;;;;10.79;80.52;100847.16;5011975;28;20046;-77
2023/04/27 02:43:25;;;;;;;3.10;2.75;;;;;;;10.71;81.56;100843.84;4994372;28;20802;-77
2023/04/27 02:45:53;;;;;;;4.82;2.80;;;;;;;10.61;80.82;100844.69;5011834;28;20488;-77
2023/04/27 02:48:21;;;;;;;3.15;2.30;;;;;;;10.51;82.33;100844.66;5011804;28;20049;-77
2023/04/27 02:50:49;;;;;;;5.03;2.55;;;;;;;10.52;81.37;100857.28;4994458;28;20050;-77
2023/04/27 02:53:17;;;;;;;3.40;2.40;;;;;;;10.51;81.91;100860.28;4994216;28;20048;-77
2023/04/27 02:55:49;;;;;;;2.78;2.30;;;;;;;10.48;82.00;100846.03;4994350;28;20396;-76
2023/04/27 02:58:17;;;;;;;5.03;2.53;;;;;;;10.47;80.48;100852.59;4994120;28;20461;-77
2023/04/27 03:00:45;;;;;;;2.83;2.63;;;;;;;10.51;82.34;100854.81;4994302;28;20050;-77
2023/04/27 03:03:15;;;;;;;3.55;2.35;;;;;;;10.48;82.17;100856.97;5011776;28;20378;-77
2023/04/27 03:05:45;;;;;;;3.00;2.35;;;;;;;10.42;83.08;100857.25;4977511;28;20409;-77
2023/04/27 03:08:13;;;;;;;2.83;2.22;;;;;;;10.33;82.53;100854.22;5011617;28;20054;-76
2023/04/27 03:10:41;;;;;;;3.35;2.17;;;;;;;10.40;80.61;100865.72;5011753;28;20054;-77
2023/04/27 03:13:09;;;;;;;3.33;2.60;;;;;;;10.39;81.89;100861.34;5011738;28;20493;-77
2023/04/27 03:15:37;;;;;;;2.60;2.20;;;;;;;10.40;80.58;100864.91;4996604;28;20053;-77
2023/04/27 03:18:05;;;;;;;2.78;2.28;;;;;;;10.36;81.70;100870.06;5015232;28;20046;-77
2023/04/27 03:20:33;;;;;;;4.25;2.30;;;;;;;10.31;82.58;100865.41;5015532;28;20516;-77
2023/04/27 03:23:01;;;;;;;4.95;4.15;;;;;;;10.29;82.67;100864.88;5015474;28;20042;-77
2023/04/27 03:25:29;;;;;;;2.58;2.38;;;;;;;10.27;82.17;100860.78;4997711;28;20393;-77
2023/04/27 03:27:57;;;;;;;4.60;3.00;;;;;;;10.33;83.22;100879.63;5014843;28;20037;-76
2023/04/27 03:30:25;;;;;;;3.72;2.67;;;;;;;10.36;83.38;100864.59;5015159;28;20062;-76
2023/04/27 03:32:53;;;;;;;3.08;2.47;;;;;;;10.47;82.72;100877.22;5015254;28;20049;-76
2023/04/27 03:35:21;;;;;;;2.55;2.03;;;;;;;10.44;84.42;100877.78;5015077;28;20045;-77
2023/04/27 03:37:49;;;;;;;3.25;2.35;;;;;;;10.42;84.88;100870.91;4997634;28;20053;-76
2023/04/27 03:40:17;;;;;;;2.33;1.98;;;;;;;10.35;83.32;100871.16;4997663;28;20405;-76
2023/04/27 03:42:45;;;;;;;4.22;2.90;;;;;;;10.40;82.58;100873.91;5015082;28;20365;-77
2023/04/27 03:45:15;;;;;;;2.88;2.60;;;;;;;10.35;82.13;100862.97;4997492;28;20054;-76
2023/04/27 03:47:43;;;;;;;4.95;2.97;;;;;;;10.29;84.06;100869.53;5014743;28;20054;-76
2023/04/27 03:50:13;;;;;;;3.05;2.75;;;;;;;10.28;85.15;100862.41;4997506;28;20046;-77
2023/04/27 03:52:41;;;;;;;4.97;2.80;;;;;;;10.25;84.93;100868.41;4997405;28;20404;-76
2023/04/27 03:55:10;;;;;;;5.70;3.40;;;;;;;10.24;85.65;100867.59;4997350;28;20045;-77
2023/04/27 03:57:41;;;;;;;4.95;3.00;;;;;;;10.30;85.55;100868.41;4997333;28;20046;-76
2023/04/27 04:00:11;;;;;;;4.57;3.20;;;;;;;10.34;85.28;100869.53;5014819;28;20511;-77
2023/04/27 04:02:42;;;;;;;5.15;2.75;;;;;;;10.33;85.47;100870.63;4997294;28;20671;-76
2023/04/27 04:05:13;;;;;;;3.55;3.10;;;;;;;10.31;85.69;100870.91;5014757;28;20390;-76
2023/04/27 04:07:42;;;;;;;3.17;2.63;;;;;;;10.23;86.22;100876.91;4996821;28;20408;-77
2023/04/27 04:10:11;;;;;;;6.75;3.00;;;;;;;10.12;87.20;100867.84;4997225;28;20046;-77
2023/04/27 04:12:39;;;;;;;4.97;2.80;;;;;;;10.07;86.71;100873.31;4996571;28;20049;-77
2023/04/27 04:15:08;;;;;;;3.85;2.70;;;;;;;10.03;87.81;100873.00;4997024;28;20045;-77
2023/04/27 04:17:37;;;;;;;3.90;3.20;;;;;;;10.09;86.58;100877.41;4996003;28;20500;-77
2023/04/27 04:20:09;;;;;;;6.10;2.92;;;;;;;10.14;85.47;100876.63;4995622;28;20042;-77
2023/04/27 04:22:38;;;;;;;6.60;2.97;;;;;;;10.15;86.41;100881.00;4996555;28;20042;-76
2023/04/27 04:25:07;;;;;;;7.20;2.92;;;;;;;10.15;87.11;100888.34;4995410;28;20049;-77
2023/04/27 04:27:35;;;;;;;6.75;3.35;;;;;;;10.25;86.35;100895.75;4987070;28;20045;-77
2023/04/27 04:30:06;;;;;;;3.80;3.03;;;;;;;10.79;84.13;100905.44;4983081;28;20251;-77
2023/04/27 04:32:39;;;;;;;3.78;2.30;;;;;;;10.88;82.78;100897.50;4986817;28;20038;-77
2023/04/27 04:35:08;;;;;;;4.45;2.85;;;;;;;11.12;81.09;100911.47;4994958;28;20061;-77
2023/04/27 04:37:37;;;;;;;3.28;2.28;;;;;;;11.02;81.80;100906.00;4979254;28;20050;-77
2023/04/27 04:40:10;;;;;;;5.03;2.85;;;;;;;11.11;81.68;100907.06;4980158;28;20062;-77
2023/04/27 04:42:39;;;;;;;3.85;2.90;;;;;;;11.20;80.31;100910.06;4996894;28;20488;-77
2023/04/27 04:45:09;;;;;;;4.20;3.17;;;;;;;11.25;80.48;100912.81;4996759;28;20405;-77
2023/04/27 04:47:38;;;;;;;3.78;2.55;;;;;;;11.44;79.58;100906.75;4996326;28;20042;-77
2023/04/27 04:50:08;;;;;;;5.10;2.95;;;;;;;11.50;79.20;100919.38;4996019;28;20053;-77
2023/04/27 04:52:37;;;;;;;3.70;3.30;;;;;;;11.53;79.78;100928.91;4996651;28;20535;-77
2023/04/27 04:55:06;;;;;;;5.07;2.92;;;;;;;11.38;78.36;100916.06;5013603;28;20061;-77
2023/04/27 04:57:34;;;;;;;10.63;3.33;;;;;;;11.53;78.72;100935.25;4996326;28;20046;-77
2023/04/27 05:00:05;;;;;;;5.03;3.15;;;;;;;11.86;77.54;100932.13;4996633;28;20049;-76
2023/04/27 05:02:33;;;;;;;6.65;2.72;;;;;;;12.17;76.21;100936.69;4995187;28;20045;-75
2023/04/27 05:05:01;;;;;;;6.30;3.13;;;;;;;12.08;75.63;100934.53;5027595;28;20045;-76
2023/04/27 05:07:29;;;;;;;5.85;3.03;;;;;;;12.26;75.35;100940.47;4997749;28;20057;-77
2023/04/27 05:09:57;;;;;;;5.13;2.55;;;;;;;12.47;73.71;100951.34;5013943;28;20056;-76
2023/04/27 05:12:25;;;;;;;5.90;2.83;;;;;;;12.74;73.21;100952.81;5012283;28;20397;-76
2023/04/27 05:14:53;;;;;;;5.35;2.80;;;;;;;12.84;71.71;100965.66;5013374;28;20042;-76
2023/04/27 05:17:21;;;;;;;4.40;2.72;;;;;;;12.73;71.96;100960.25;4995553;28;20053;-76
2023/04/27 05:19:49;;;;;;;2.88;2.60;;;;;;;12.71;71.78;100956.94;5013636;28;20050;-76
2023/04/27 05:22:17;;;;;;;2.60;2.28;;;;;;;12.79;70.54;100974.75;5012607;28;20037;-76
2023/04/27 05:24:45;;;;;;;3.72;2.38;;;;;;;12.87;70.66;100963.16;5012657;28;20049;-76
2023/04/27 05:27:16;;;;;;;3.67;2.25;;;;;;;12.98;69.19;100971.31;5013065;28;20050;-76
2023/04/27 05:29:44;;;;;;;4.75;2.55;;;;;;;13.06;70.11;100967.97;5013253;28;20143;-76
2023/04/27 05:32:11;;;;;;;2.85;2.22;;;;;;;13.07;70.21;100958.63;5012600;28;20374;-76
2023/04/27 05:34:40;;;;;;;3.35;2.47;;;;;;;13.23;69.46;100969.47;5008421;28;20057;-75
2023/04/27 05:37:07;;;;;;;3.20;2.53;;;;;;;13.27;69.24;100968.63;4995691;28;20053;-75
2023/04/27 05:39:35;;;;;;;4.05;2.40;;;;;;;13.43;68.65;100972.03;5013362;28;20060;-75
2023/04/27 05:42:03;;;;;;;2.95;2.03;;;;;;;13.61;67.64;100975.19;5005860;28;20049;-75
2023/04/27 05:44:31;;;;;;;3.83;2.08;;;;;;;13.72;67.21;100970.41;5013176;28;20049;-76
2023/04/27 05:46:59;;;;;;;4.68;2.30;;;;;;;13.90;65.86;100979.84;5013097;28;20049;-76
2023/04/27 05:49:27;;;;;;;2.78;2.22;;;;;;;13.88;65.31;100976.53;5013217;28;20058;-76
2023/04/27 05:51:57;;;;;;;6.63;2.20;;;;;;;13.97;65.87;100979.47;5013056;28;20049;-76
2023/04/27 05:54:26;;;;;;;2.45;1.92;;;;;;;13.92;66.41;100988.63;5013086;28;20041;-76
2023/04/27 05:56:54;;;;;;;8.07;2.40;;;;;;;14.07;65.68;100979.34;5012959;28;20062;-76
2023/04/27 05:59:22;;;;;;;3.78;2.00;;;;;;;14.16;65.34;100985.03;5013243;28;20042;-76
2023/04/27 06:01:50;;;;;;;4.57;2.40;;;;;;;14.25;65.22;100982.44;4995307;28;20045;-76
2023/04/27 06:04:18;;;;;;;3.97;2.28;;;;;;;14.41;64.38;100983.06;5012831;28;20045;-76
2023/04/27 06:06:46;;;;;;;4.18;2.53;;;;;;;14.50;64.00;100989.56;5012761;28;20057;-76
2023/04/27 06:09:14;;;;;;;2.72;2.40;;;;;;;14.62;63.52;100991.84;4995609;28;20046;-76
2023/04/27 06:11:42;;;;;;;2.97;2.30;;;;;;;14.58;63.07;100988.06;4995563;28;20046;-76
2023/04/27 06:14:10;;;;;;;2.65;2.40;;;;;;;14.69;62.94;100999.75;5012644;28;20053;-76
2023/04/27 06:16:39;;;;;;;3.45;2.20;;;;;;;14.80;61.38;100997.69;5012510;28;20131;-76
2023/04/27 06:19:07;;;;;;;4.35;2.20;;;;;;;14.87;61.21;101000.06;5012591;28;20516;-76
2023/04/27 06:21:35;;;;;;;4.47;1.73;;;;;;;14.95;59.74;100998.59;5012609;28;20042;-76
2023/04/27 06:24:03;;;;;;;4.60;2.15;;;;;;;14.89;62.19;100997.84;5012490;28;20041;-76
2023/04/27 06:26:32;;;;;;;4.53;2.10;;;;;;;15.00;61.02;101004.03;5012389;28;20057;-76
2023/04/27 06:29:02;;;;;;;3.85;2.38;;;;;;;15.23;60.65;101009.69;5012273;28;20057;-76
2023/04/27 06:31:30;;;;;;;2.83;1.88;;;;;;;15.35;59.93;101009.25;5012464;28;20046;-76
2023/04/27 06:33:58;;;;;;;2.50;1.77;;;;;;;15.34;58.40;101019.44;5012385;28;20045;-76
2023/04/27 06:36:27;;;;;;;1.77;1.50;;;;;;;15.39;57.91;101021.31;5012273;28;20057;-76
2023/04/27 06:38:55;;;;;;;4.00;1.90;;;;;;;15.47;58.30;101009.59;5012356;28;20500;-76
2023/04/27 06:41:24;;;;;;;3.10;1.92;;;;;;;15.59;59.25;101020.13;5012367;28;20572;-76
2023/04/27 06:43:53;;;;;;;2.15;1.90;;;;;;;15.67;57.13;101029.63;5012278;28;20401;-76
2023/04/27 06:46:23;;;;;;;3.15;1.70;;;;;;;15.72;57.14;101021.28;4995112;28;20066;-76
2023/04/27 06:48:51;;;;;;;2.05;1.90;;;;;;;15.85;57.60;101023.22;5012325;28;20053;-76
2023/04/27 06:51:19;;;;;;;2.83;1.77;;;;;;;15.80;55.91;101031.59;4998529;28;20501;-76
2023/04/27 06:53:47;;;;;;;2.75;1.38;;;;;;;15.88;56.01;101030.06;5016319;28;20042;-76
2023/04/27 06:56:15;;;;;;;2.13;1.67;;;;;;;16.06;54.24;101033.09;4982816;28;20046;-76
2023/04/27 06:58:43;;;;;;;3.10;1.95;;;;;;;16.15;55.99;101031.25;4998873;28;20041;-76
2023/04/27 07:01:11;;;;;;;2.88;2.30;;;;;;;15.97;54.22;101035.75;5016097;28;20045;-76
2023/04/27 07:03:38;;;;;;;3.03;1.90;;;;;;;16.18;53.43;101033.38;5016095;28;20038;-76
2023/04/27 07:06:07;;;;;;;3.15;2.58;;;;;;;16.25;54.68;101033.00;5015789;28;20064;-76
2023/04/27 07:08:35;;;;;;;3.17;2.35;;;;;;;16.35;51.91;101030.03;5016983;28;20505;-76
2023/04/27 07:11:03;;;;;;;2.13;1.60;;;;;;;16.53;52.53;101030.22;4999359;28;20049;-76
2023/04/27 07:13:31;;;;;;;3.58;1.42;;;;;;;16.69;51.70;101027.09;5016649;28;20038;-76
2023/04/27 07:16:00;;;;;;;2.88;1.00;;;;;;;16.62;45.80;101020.03;5016949;28;20046;-76
2023/04/27 07:18:28;;;;;;;4.35;1.05;;;;;;;16.82;46.98;101030.94;5016984;28;20049;-76
2023/04/27 07:20:56;;;;;;;1.77;0.93;;;;;;;16.93;47.54;101033.16;5016851;28;20054;-76
2023/04/27 07:23:24;;;;;;;2.33;1.50;;;;;;;17.03;47.51;101034.09;4998610;28;20073;-76
2023/04/27 07:25:53;;;;;;;1.50;1.27;;;;;;;17.17;47.86;101031.28;5015587;28;20050;-76
2023/04/27 07:28:21;;;;;;;2.92;1.40;;;;;;;17.03;48.38;101036.84;4998239;28;20377;-76
2023/04/27 07:30:49;;;;;;;5.55;1.40;;;;;;;17.04;46.53;101031.00;5015396;28;20049;-76
2023/04/27 07:33:17;;;;;;;2.03;1.60;;;;;;;17.07;46.47;101035.09;4998117;28;20500;-76
2023/04/27 07:35:45;;;;;;;2.15;1.73;;;;;;;17.26;46.69;101034.09;5015470;28;20077;-76
2023/04/27 07:38:13;;;;;;;4.38;1.60;;;;;;;17.16;46.60;101038.75;4997780;28;20049;-76
2023/04/27 07:40:41;;;;;;;1.63;1.35;;;;;;;17.21;45.04;101042.53;5015192;28;20042;-76
2023/04/27 07:43:12;;;;;;;1.13;0.98;;;;;;;16.88;40.71;101044.34;5015340;28;20057;-76
2023/04/27 07:45:40;;;;;;;0.80;0.73;;;;;;;17.19;42.18;101040.88;5015083;28;20046;-76
2023/04/27 07:48:08;;;;;;;1.30;0.98;;;;;;;17.30;40.99;101043.41;5015272;28;20477;-76
2023/04/27 07:50:36;;;;;;;0.75;0.60;;;;;;;17.12;38.58;101040.50;5015282;28;20476;-76
2023/04/27 07:53:04;;;;;;;0.55;0.55;;;;;;;17.39;39.80;101044.28;5015109;28;20404;-76
2023/04/27 07:55:32;;;;;;;0.88;0.52;;;;;;;17.53;39.04;101043.38;5015095;28;20057;-76
2023/04/27 07:58:01;;;;;;;0.55;0.32;;;;;;;17.44;37.68;101040.56;4997653;28;20064;-76
2023/04/27 08:00:29;;;;;;;1.20;0.50;;;;;;;17.51;38.97;101035.41;5014997;28;20050;-76
2023/04/27 08:02:56;;;;;;;1.33;0.70;;;;;;;17.53;39.21;101044.19;5015065;28;20053;-76
2023/04/27 08:05:25;;;;;;;2.85;0.70;;;;;;;17.58;38.31;101048.78;5014934;28;20520;-76
2023/04/27 08:07:53;;;;;;;0.68;0.45;;;;;;;17.63;36.47;101053.34;4997275;28;20057;-76
2023/04/27 08:10:22;;;;;;;0.47;0.40;;;;;;;17.79;37.98;101051.81;5014936;28;20053;-76
2023/04/27 08:12:50;;;;;;;0.73;0.40;;;;;;;17.57;36.41;101072.06;4997254;28;20400;-76
2023/04/27 08:15:19;;;;;;;0.77;0.60;;;;;;;17.67;37.68;101063.50;5014785;28;20377;-76
2023/04/27 08:17:47;;;;;;;0.47;0.30;;;;;;;17.59;35.44;101061.47;5014652;28;20057;-76
2023/04/27 08:20:15;;;;;;;1.65;0.55;;;;;;;17.78;37.82;101054.94;5014693;28;20053;-76
2023/04/27 08:22:43;;;;;;;0.43;0.43;;;;;;;17.72;37.79;101063.38;5014685;28;20064;-76
2023/04/27 08:25:11;;;;;;;2.70;0.65;;;;;;;17.71;37.58;101049.84;5014610;28;20069;-76
2023/04/27 08:27:39;;;;;;;1.15;0.43;;;;;;;18.05;37.62;101056.69;4996871;28;20042;-76
2023/04/27 08:30:08;;;;;;;0.95;0.38;;;;;;;18.03;34.73;101069.22;5014431;28;20046;-76
2023/04/27 08:32:36;;;;;;;0.52;0.30;;;;;;;18.18;36.00;101077.13;4997070;28;20050;-76
2023/04/27 08:35:05;;;;;;;0.75;0.38;;;;;;;18.26;35.89;101072.75;5014627;28;20056;-76
2023/04/27 08:37:33;;;;;;;0.70;0.40;;;;;;;18.27;36.37;101079.91;5014325;28;20485;-76
2023/04/27 08:40:03;;;;;;;1.33;0.30;;;;;;;18.26;33.98;101073.56;5014368;28;20050;-76
2023/04/27 08:42:33;;;;;;;0.30;0.30;;;;;;;18.34;35.54;101085.81;5014305;28;20042;-76
2023/04/27 08:45:01;;;;;;;0.47;0.30;;;;;;;18.26;36.38;101079.13;5014231;28;20046;-76
2023/04/27 08:47:29;;;;;;;0.45;0.30;;;;;;;18.20;35.69;101076.81;5014104;28;20038;-76
2023/04/27 08:50:11;;;;;;;2.08;0.50;;;;;;;18.32;35.90;101084.53;5014175;28;20397;-76
2023/04/27 08:52:39;;;;;;;0.50;0.40;;;;;;;18.50;35.72;101083.44;5014115;28;20046;-76
2023/04/27 08:55:07;;;;;;;0.70;0.40;;;;;;;18.43;35.21;101082.25;5014074;28;20145;-76
2023/04/27 08:57:35;;;;;;;0.57;0.40;;;;;;;18.53;34.47;101079.19;5013881;28;20045;-76
2023/04/27 09:00:11;;;;;;;0.20;0.20;;;;;;;18.52;34.75;101095.00;5013991;28;20052;-76
2023/04/27 09:02:46;;;;;;;0.28;0.28;;;;;;;18.53;33.78;101093.84;4996502;28;20046;-76
2023/04/27 09:05:19;;;;;;;1.88;0.30;;;;;;;18.62;34.28;101077.25;5013916;28;20042;-76
2023/04/27 09:07:58;;;;;;;0.93;0.40;;;;;;;18.55;33.38;101090.78;5013843;28;20050;-76
2023/04/27 09:10:28;;;;;;;0.40;0.40;;;;;;;18.84;34.59;101085.75;5013762;28;20061;-76
2023/04/27 09:12:58;;;;;;;0.50;0.50;;;;;;;18.61;31.73;101083.09;5013193;28;20401;-76
2023/04/27 09:15:27;;;;;;;0.60;0.45;;;;;;;18.68;33.11;101083.47;5013704;28;20046;-76
2023/04/27 09:17:56;;;;;;;2.05;1.05;;;;;;;18.80;33.00;101063.41;5013635;28;20466;-76
2023/04/27 09:20:25;;;;;;;1.80;0.52;;;;;;;18.79;35.47;101082.03;4996320;28;20046;-76
2023/04/27 09:22:56;;;;;;;3.75;0.98;;;;;;;18.79;35.66;101068.16;5013594;28;20407;-76
2023/04/27 09:25:31;;;;;;;1.00;0.50;;;;;;;18.87;35.58;101066.50;5013305;28;20477;-77
2023/04/27 09:28:00;;;;;;;0.80;0.47;;;;;;;18.78;35.72;101069.28;5013543;28;20050;-76
2023/04/27 09:30:29;;;;;;;0.50;0.40;;;;;;;18.76;36.20;101066.03;5013288;28;20061;-76
2023/04/27 09:33:00;;;;;;;1.23;0.68;;;;;;;18.82;36.62;101072.22;5013327;28;20052;-75
2023/04/27 09:35:31;;;;;;;0.57;0.38;;;;;;;18.94;35.54;101066.88;5013303;28;20385;-76
2023/04/27 09:37:59;;;;;;;0.57;0.57;;;;;;;19.24;36.04;101065.41;5013210;28;20061;-76
2023/04/27 09:40:29;;;;;;;2.25;0.75;;;;;;;19.18;36.56;101065.59;5013153;28;20050;-76
2023/04/27 09:43:02;;;;;;;0.60;0.60;;;;;;;19.18;37.36;101056.44;5013248;28;20041;-76
2023/04/27 09:45:32;;;;;;;1.95;0.60;;;;;;;19.13;36.10;101062.16;4995781;28;20053;-76
2023/04/27 09:48:01;;;;;;;0.60;0.60;;;;;;;19.20;36.83;101057.75;5013186;28;20472;-76
2023/04/27 09:50:33;;;;;;;0.80;0.80;;;;;;;19.29;35.01;101051.38;4979538;28;20061;-76
2023/04/27 09:53:07;;;;;;;0.60;0.60;;;;;;;19.17;35.64;101054.81;5013130;28;20484;-76
2023/04/27 09:55:44;;;;;;;1.75;0.50;;;;;;;19.17;36.26;101060.38;4995704;28;20057;-76
2023/04/27 09:58:15;;;;;;;1.40;0.93;;;;;;;19.30;37.72;101055.78;5013026;28;20049;-76
2023/04/27 10:01:07;;;;;;;2.08;1.10;;;;;;;19.36;38.31;101053.66;5012994;28;20056;-76
2023/04/27 10:03:50;;;;;;;1.02;0.73;;;;;;;19.33;37.05;101044.84;5012962;28;20053;-76
2023/04/27 10:06:27;;;;;;;0.70;0.70;;;;;;;19.29;37.95;101049.41;5012751;28;20049;-76
2023/04/27 10:08:56;;;;;;;0.80;0.80;;;;;;;19.33;38.41;101039.31;5012884;28;20080;-76
2023/04/27 10:11:39;;;;;;;0.90;0.90;;;;;;;19.53;37.32;101042.53;5012716;28;20042;-76
2023/04/27 10:14:10;;;;;;;1.65;1.05;;;;;;;19.88;38.06;101044.38;5012767;28;20397;-76
2023/04/27 10:16:53;;;;;;;0.82;0.75;;;;;;;19.79;38.50;101044.41;4995443;28;20495;-76
2023/04/27 10:19:22;;;;;;;0.90;0.85;;;;;;;19.31;36.96;101047.13;5012600;28;20056;-76
2023/04/27 10:22:01;;;;;;;2.50;0.95;;;;;;;19.66;38.70;101040.72;4995029;28;20049;-76
2023/04/27 10:24:36;;;;;;;1.27;1.02;;;;;;;19.86;37.81;101032.78;5012054;28;20061;-76
2023/04/27 10:27:06;;;;;;;0.65;0.65;;;;;;;20.08;37.53;101044.84;4993958;28;20045;-76
2023/04/27 10:29:37;;;;;;;0.88;0.77;;;;;;;19.87;35.36;101045.53;5012378;28;20057;-76
2023/04/27 10:32:06;;;;;;;0.60;0.60;;;;;;;19.81;33.29;101052.41;5012415;28;20041;-76
2023/04/27 10:34:36;;;;;;;0.50;0.38;;;;;;;20.05;34.18;101034.38;5012402;28;20042;-76
2023/04/27 10:37:09;;;;;;;2.05;0.63;;;;;;;20.04;34.37;101033.53;5012455;28;20053;-76
2023/04/27 10:39:40;;;;;;;1.13;0.82;;;;;;;20.01;33.58;101045.34;5012332;28;20053;-76
2023/04/27 10:42:28;;;;;;;0.40;0.40;;;;;;;20.00;33.97;101035.38;4994937;28;20049;-76
2023/04/27 10:44:57;;;;;;;0.68;0.40;;;;;;;20.11;31.44;101033.88;5012436;28;20045;-76
2023/04/27 10:47:39;;;;;;;0.47;0.47;;;;;;;19.55;31.77;101028.31;4994696;28;20046;-76
2023/04/27 10:50:12;;;;;;;3.92;0.60;;;;;;;20.07;33.88;101027.34;5012401;28;20057;-76
2023/04/27 10:52:45;;;;;;;0.40;0.40;;;;;;;20.24;34.97;101033.97;5012359;28;20404;-76
2023/04/27 10:55:21;;;;;;;1.10;0.65;;;;;;;20.61;33.39;101031.44;5012415;28;20118;-76
2023/04/27 10:57:54;;;;;;;0.82;0.63;;;;;;;20.48;33.56;101022.19;5012188;28;20042;-76
2023/04/27 11:00:43;;;;;;;0.40;0.40;;;;;;;20.78;32.06;101024.13;5012190;28;20061;-76
2023/04/27 11:03:11;;;;;;;0.82;0.60;;;;;;;20.72;33.08;101028.25;5012233;28;20046;-76
2023/04/27 11:05:41;;;;;;;0.98;0.82;;;;;;;20.64;33.04;101022.41;5011956;28;20046;-76
2023/04/27 11:08:12;;;;;;;0.70;0.70;;;;;;;20.70;33.31;101025.00;5012158;28;20053;-76
2023/04/27 11:10:46;;;;;;;0.95;0.80;;;;;;;20.91;33.21;101019.44;5012030;28;20374;-76
2023/04/27 11:13:21;;;;;;;3.70;0.80;;;;;;;20.48;31.86;101013.06;4994691;28;20049;-76
2023/04/27 11:15:57;;;;;;;1.55;1.02;;;;;;;20.72;33.33;101019.91;5012075;28;20057;-76
2023/04/27 11:18:29;;;;;;;1.85;1.00;;;;;;;20.77;33.00;101009.41;5011996;28;20050;-76
2023/04/27 11:21:08;;;;;;;2.55;1.20;;;;;;;20.92;33.92;101012.75;5012047;28;20053;-76
2023/04/27 11:23:40;;;;;;;2.42;1.30;;;;;;;21.00;34.55;101017.41;5012157;28;20057;-77
2023/04/27 11:26:18;;;;;;;1.55;1.40;;;;;;;21.13;34.11;101023.84;4994560;28;20046;-76
2023/04/27 11:29:04;;;;;;;1.55;1.45;;;;;;;21.03;34.67;101027.06;5011852;28;20493;-76
2023/04/27 11:31:51;;;;;;;4.88;1.75;;;;;;;20.92;35.20;101013.56;4994245;28;20539;-76
2023/04/27 11:34:21;;;;;;;2.80;1.70;;;;;;;21.04;34.33;101011.97;5011851;28;20061;-76
2023/04/27 11:36:58;;;;;;;2.22;1.83;;;;;;;21.15;35.38;101015.16;5014627;28;20046;-76